createdAt,value
2018-01-21T00:00:55.473Z,998.09
2018-01-21T00:01:55.484Z,998.09
2018-01-21T00:02:55.488Z,998.06
2018-01-21T00:03:55.508Z,998.11
2018-01-21T00:04:55.516Z,998.10
2018-01-21T00:05:55.531Z,998.10
2018-01-21T00:06:55.534Z,998.09
2018-01-21T00:07:55.543Z,998.13
2018-01-21T00:08:55.553Z,998.10
2018-01-21T00:09:55.571Z,998.13
2018-01-21T00:10:55.571Z,998.10
2018-01-21T00:11:55.580Z,998.14
2018-01-21T00:12:55.600Z,998.14
2018-01-21T00:13:55.610Z,998.11
2018-01-21T00:14:55.618Z,998.11
2018-01-21T00:15:55.634Z,998.11
2018-01-21T00:16:55.636Z,998.13
2018-01-21T00:17:55.645Z,998.17
2018-01-21T00:18:55.663Z,998.15
2018-01-21T00:19:55.663Z,998.19
2018-01-21T00:20:55.679Z,998.18
2018-01-21T00:21:55.699Z,998.18
2018-01-21T00:22:55.701Z,998.19
2018-01-21T00:23:55.711Z,998.21
2018-01-21T00:24:55.719Z,998.23
2018-01-21T00:25:55.729Z,998.19
2018-01-21T00:26:55.737Z,998.22
2018-01-21T00:27:55.748Z,998.22
2018-01-21T00:28:55.754Z,998.26
2018-01-21T00:29:55.763Z,998.28
2018-01-21T00:30:55.773Z,998.28
2018-01-21T00:31:55.782Z,998.31
2018-01-21T00:32:55.803Z,998.34
2018-01-21T00:33:55.819Z,998.36
2018-01-21T00:34:55.821Z,998.29
2018-01-21T00:35:55.836Z,998.26
2018-01-21T00:36:55.841Z,998.29
2018-01-21T00:37:55.848Z,998.30
2018-01-21T00:38:55.857Z,998.31
2018-01-21T00:39:55.871Z,998.29
2018-01-21T00:40:55.874Z,998.31
2018-01-21T00:41:55.889Z,998.30
2018-01-21T00:42:55.899Z,998.32
2018-01-21T00:43:55.902Z,998.31
2018-01-21T00:44:55.918Z,998.27
2018-01-21T00:45:55.932Z,998.34
2018-01-21T00:46:55.940Z,998.32
2018-01-21T00:47:55.948Z,998.35
2018-01-21T00:48:55.957Z,998.34
2018-01-21T00:49:55.967Z,998.34
2018-01-21T00:50:55.975Z,998.39
2018-01-21T00:51:55.985Z,998.35
2018-01-21T00:52:55.994Z,998.37
2018-01-21T00:53:56.010Z,998.40
2018-01-21T00:54:56.012Z,998.44
2018-01-21T00:55:56.030Z,998.47
2018-01-21T00:56:56.030Z,998.49
2018-01-21T00:57:56.045Z,998.50
2018-01-21T00:58:56.055Z,998.52
2018-01-21T00:59:56.073Z,998.59
2018-01-21T01:00:56.084Z,998.57
2018-01-21T01:01:56.085Z,998.58
2018-01-21T01:02:56.095Z,998.57
2018-01-21T01:03:56.105Z,998.61
2018-01-21T01:04:56.114Z,998.58
2018-01-21T01:05:56.128Z,998.62
2018-01-21T01:06:56.137Z,998.64
2018-01-21T01:07:56.146Z,998.67
2018-01-21T01:08:56.148Z,998.64
2018-01-21T01:09:56.160Z,998.68
2018-01-21T01:10:56.167Z,998.65
2018-01-21T01:11:56.183Z,998.67
2018-01-21T01:12:56.184Z,998.69
2018-01-21T01:13:56.192Z,998.71
2018-01-21T01:14:56.203Z,998.69
2018-01-21T01:15:56.212Z,998.71
2018-01-21T01:16:56.239Z,998.71
2018-01-21T01:17:56.240Z,998.70
2018-01-21T01:18:56.249Z,998.72
2018-01-21T01:19:56.259Z,998.72
2018-01-21T01:20:56.274Z,998.75
2018-01-21T01:21:56.277Z,998.76
2018-01-21T01:22:56.287Z,998.77
2018-01-21T01:23:56.293Z,998.75
2018-01-21T01:24:56.309Z,998.74
2018-01-21T01:25:56.319Z,998.81
2018-01-21T01:26:56.328Z,998.84
2018-01-21T01:27:56.329Z,998.86
2018-01-21T01:28:56.339Z,998.85
2018-01-21T01:29:56.348Z,998.89
2018-01-21T01:30:56.370Z,998.88
2018-01-21T01:31:56.365Z,998.94
2018-01-21T01:32:56.386Z,998.92
2018-01-21T01:33:56.395Z,998.96
2018-01-21T01:34:56.412Z,998.94
2018-01-21T01:35:56.413Z,998.97
2018-01-21T01:36:56.422Z,998.97
2018-01-21T01:37:56.432Z,998.97
2018-01-21T01:38:56.440Z,998.97
2018-01-21T01:39:56.471Z,998.99
2018-01-21T01:40:56.457Z,999.05
2018-01-21T01:41:56.467Z,999.06
2018-01-21T01:42:56.488Z,999.06
2018-01-21T01:43:56.497Z,999.04
2018-01-21T01:44:56.493Z,999.09
2018-01-21T01:45:56.510Z,999.09
2018-01-21T01:46:56.512Z,999.09
2018-01-21T01:47:56.528Z,999.11
2018-01-21T01:48:56.554Z,999.13
2018-01-21T01:49:56.551Z,999.11
2018-01-21T01:50:56.566Z,999.14
2018-01-21T01:51:56.569Z,999.11
2018-01-21T01:52:56.584Z,999.13
2018-01-21T01:53:56.606Z,999.13
2018-01-21T01:54:56.595Z,999.16
2018-01-21T01:55:56.604Z,999.19
2018-01-21T01:56:56.616Z,999.19
2018-01-21T01:57:56.621Z,999.23
2018-01-21T01:58:56.630Z,999.23
2018-01-21T01:59:56.646Z,999.23
2018-01-21T02:00:56.661Z,999.24
2018-01-21T02:01:56.670Z,999.29
2018-01-21T02:02:56.679Z,999.27
2018-01-21T02:03:56.694Z,999.25
2018-01-21T02:04:56.703Z,999.28
2018-01-21T02:05:56.705Z,999.29
2018-01-21T02:06:56.714Z,999.30
2018-01-21T02:07:56.722Z,999.31
2018-01-21T02:08:56.738Z,999.30
2018-01-21T02:09:56.746Z,999.34
2018-01-21T02:10:56.750Z,999.38
2018-01-21T02:11:56.770Z,999.35
2018-01-21T02:12:56.768Z,999.36
2018-01-21T02:13:56.787Z,999.41
2018-01-21T02:14:56.797Z,999.39
2018-01-21T02:15:56.805Z,999.37
2018-01-21T02:16:56.815Z,999.44
2018-01-21T02:17:56.830Z,999.46
2018-01-21T02:18:56.832Z,999.47
2018-01-21T02:19:56.852Z,999.48
2018-01-21T02:20:56.862Z,999.51
2018-01-21T02:21:56.858Z,999.46
2018-01-21T02:22:56.869Z,999.49
2018-01-21T02:23:56.889Z,999.51
2018-01-21T02:24:56.904Z,999.48
2018-01-21T02:25:56.913Z,999.52
2018-01-21T02:26:56.915Z,999.55
2018-01-21T02:27:56.931Z,999.52
2018-01-21T02:28:56.934Z,999.49
2018-01-21T02:29:56.955Z,999.52
2018-01-21T02:30:56.953Z,999.54
2018-01-21T02:31:56.960Z,999.57
2018-01-21T02:32:56.970Z,999.58
2018-01-21T02:33:56.996Z,999.59
2018-01-21T02:34:56.999Z,999.60
2018-01-21T02:35:57.019Z,999.62
2018-01-21T02:36:57.018Z,999.59
2018-01-21T02:37:57.027Z,999.61
2018-01-21T02:38:57.048Z,999.65
2018-01-21T02:39:57.045Z,999.65
2018-01-21T02:40:57.061Z,999.66
2018-01-21T02:41:57.063Z,999.67
2018-01-21T02:42:57.073Z,999.66
2018-01-21T02:43:57.112Z,999.66
2018-01-21T02:44:57.108Z,999.67
2018-01-21T02:45:57.111Z,999.66
2018-01-21T02:46:57.121Z,999.65
2018-01-21T02:47:57.148Z,999.64
2018-01-21T02:48:57.137Z,999.69
2018-01-21T02:49:57.147Z,999.68
2018-01-21T02:50:57.162Z,999.72
2018-01-21T02:51:57.168Z,999.73
2018-01-21T02:52:57.198Z,999.75
2018-01-21T02:53:57.195Z,999.76
2018-01-21T02:54:57.203Z,999.79
2018-01-21T02:55:57.218Z,999.74
2018-01-21T02:56:57.233Z,999.81
2018-01-21T02:57:57.241Z,999.79
2018-01-21T02:58:57.239Z,999.82
2018-01-21T02:59:57.247Z,999.79
2018-01-21T03:00:57.270Z,999.79
2018-01-21T03:01:57.293Z,999.80
2018-01-21T03:02:57.286Z,999.80
2018-01-21T03:03:57.295Z,999.84
2018-01-21T03:04:57.304Z,999.81
2018-01-21T03:05:57.326Z,999.83
2018-01-21T03:06:57.323Z,999.90
2018-01-21T03:07:57.331Z,999.86
2018-01-21T03:08:57.353Z,999.87
2018-01-21T03:09:57.362Z,999.87
2018-01-21T03:10:57.385Z,999.90
2018-01-21T03:11:57.386Z,999.97
2018-01-21T03:12:57.395Z,999.96
2018-01-21T03:13:57.397Z,999.94
2018-01-21T03:14:57.424Z,999.97
2018-01-21T03:15:57.420Z,999.97
2018-01-21T03:16:57.425Z,999.98
2018-01-21T03:17:57.452Z,999.98
2018-01-21T03:18:57.455Z,1000.03
2018-01-21T03:19:57.476Z,1000.02
2018-01-21T03:20:57.479Z,1000.04
2018-01-21T03:21:57.485Z,1000.06
2018-01-21T03:22:57.496Z,1000.08
2018-01-21T03:23:57.517Z,1000.07
2018-01-21T03:24:57.528Z,1000.04
2018-01-21T03:25:57.536Z,1000.08
2018-01-21T03:26:57.549Z,1000.09
2018-01-21T03:27:57.548Z,1000.15
2018-01-21T03:28:57.568Z,1000.15
2018-01-21T03:29:57.573Z,1000.19
2018-01-21T03:30:57.592Z,1000.17
2018-01-21T03:31:57.590Z,1000.21
2018-01-21T03:32:57.604Z,1000.21
2018-01-21T03:33:57.913Z,1000.21
2018-01-21T03:34:57.627Z,1000.23
2018-01-21T03:35:57.630Z,1000.24
2018-01-21T03:36:57.640Z,1000.26
2018-01-21T03:37:57.667Z,1000.28
2018-01-21T03:38:57.657Z,1000.30
2018-01-21T03:39:57.668Z,1000.32
2018-01-21T03:40:57.695Z,1000.27
2018-01-21T03:41:57.696Z,1000.29
2018-01-21T03:42:57.705Z,1000.31
2018-01-21T03:43:57.714Z,1000.30
2018-01-21T03:44:57.722Z,1000.31
2018-01-21T03:45:57.732Z,1000.28
2018-01-21T03:46:57.753Z,1000.34
2018-01-21T03:47:57.757Z,1000.34
2018-01-21T03:48:57.778Z,1000.34
2018-01-21T03:49:57.780Z,1000.37
2018-01-21T03:50:57.791Z,1000.38
2018-01-21T03:51:57.804Z,1000.43
2018-01-21T03:52:57.813Z,1000.43
2018-01-21T03:53:57.816Z,1000.39
2018-01-21T03:54:57.824Z,1000.39
2018-01-21T03:55:57.853Z,1000.41
2018-01-21T03:56:57.855Z,1000.42
2018-01-21T03:57:57.868Z,1000.39
2018-01-21T03:58:57.872Z,1000.44
2018-01-21T03:59:57.889Z,1000.48
2018-01-21T04:00:57.909Z,1000.48
2018-01-21T04:01:57.899Z,1000.54
2018-01-21T04:02:57.914Z,1000.57
2018-01-21T04:03:57.924Z,1000.57
2018-01-21T04:04:57.938Z,1000.59
2018-01-21T04:05:57.947Z,1000.59
2018-01-21T04:06:57.956Z,1000.64
2018-01-21T04:07:57.966Z,1000.62
2018-01-21T04:08:57.974Z,1000.68
2018-01-21T04:09:57.982Z,1000.70
2018-01-21T04:10:58.000Z,1000.68
2018-01-21T04:11:58.001Z,1000.69
2018-01-21T04:12:58.030Z,1000.69
2018-01-21T04:13:58.037Z,1000.75
2018-01-21T04:14:58.039Z,1000.80
2018-01-21T04:15:58.050Z,1000.80
2018-01-21T04:16:58.065Z,1000.81
2018-01-21T04:17:58.066Z,1000.84
2018-01-21T04:18:58.075Z,1000.83
2018-01-21T04:19:58.085Z,1000.86
2018-01-21T04:20:58.095Z,1000.86
2018-01-21T04:21:58.120Z,1000.84
2018-01-21T04:22:58.123Z,1000.86
2018-01-21T04:23:58.133Z,1000.92
2018-01-21T04:24:58.147Z,1000.93
2018-01-21T04:25:58.150Z,1000.96
2018-01-21T04:26:58.166Z,1000.98
2018-01-21T04:27:58.171Z,1000.96
2018-01-21T04:28:58.176Z,1000.98
2018-01-21T04:29:58.193Z,1000.99
2018-01-21T04:30:58.215Z,1000.97
2018-01-21T04:31:58.223Z,1001.02
2018-01-21T04:32:58.231Z,1001.01
2018-01-21T04:33:58.233Z,1001.00
2018-01-21T04:34:58.260Z,1001.02
2018-01-21T04:35:58.251Z,1001.02
2018-01-21T04:36:58.263Z,1001.02
2018-01-21T04:37:58.269Z,1001.08
2018-01-21T04:38:58.278Z,1001.11
2018-01-21T04:39:58.294Z,1001.11
2018-01-21T04:40:58.309Z,1001.10
2018-01-21T04:41:58.324Z,1001.15
2018-01-21T04:42:58.326Z,1001.22
2018-01-21T04:43:58.334Z,1001.20
2018-01-21T04:44:58.344Z,1001.27
2018-01-21T04:45:58.354Z,1001.27
2018-01-21T04:46:58.369Z,1001.34
2018-01-21T04:47:58.370Z,1001.34
2018-01-21T04:48:58.386Z,1001.37
2018-01-21T04:49:58.400Z,1001.42
2018-01-21T04:50:58.398Z,1001.42
2018-01-21T04:51:58.414Z,1001.44
2018-01-21T04:52:58.433Z,1001.47
2018-01-21T04:53:58.439Z,1001.42
2018-01-21T04:54:58.452Z,1001.44
2018-01-21T04:55:58.460Z,1001.42
2018-01-21T04:56:58.464Z,1001.45
2018-01-21T04:57:58.479Z,1001.49
2018-01-21T04:58:58.494Z,1001.51
2018-01-21T04:59:58.490Z,1001.54
2018-01-21T05:00:58.498Z,1001.53
2018-01-21T05:01:58.509Z,1001.59
2018-01-21T05:02:58.529Z,1001.57
2018-01-21T05:03:58.537Z,1001.57
2018-01-21T05:04:58.547Z,1001.58
2018-01-21T05:05:58.555Z,1001.63
2018-01-21T05:06:58.571Z,1001.62
2018-01-21T05:07:58.586Z,1001.61
2018-01-21T05:08:58.582Z,1001.60
2018-01-21T05:09:58.597Z,1001.63
2018-01-21T05:10:58.608Z,1001.64
2018-01-21T05:11:58.621Z,1001.65
2018-01-21T05:12:58.637Z,1001.67
2018-01-21T05:13:58.645Z,1001.69
2018-01-21T05:14:58.648Z,1001.70
2018-01-21T05:15:58.656Z,1001.74
2018-01-21T05:16:58.685Z,1001.72
2018-01-21T05:17:58.682Z,1001.72
2018-01-21T05:18:58.689Z,1001.78
2018-01-21T05:19:58.693Z,1001.79
2018-01-21T05:20:58.703Z,1001.81
2018-01-21T05:21:58.722Z,1001.81
2018-01-21T05:22:58.739Z,1001.85
2018-01-21T05:23:58.740Z,1001.82
2018-01-21T05:24:58.755Z,1001.84
2018-01-21T05:25:58.771Z,1001.87
2018-01-21T05:26:58.774Z,1001.91
2018-01-21T05:27:58.776Z,1001.90
2018-01-21T05:28:58.793Z,1001.92
2018-01-21T05:29:58.807Z,1001.92
2018-01-21T05:30:58.822Z,1001.96
2018-01-21T05:31:58.824Z,1001.95
2018-01-21T05:32:58.839Z,1001.98
2018-01-21T05:33:58.842Z,1001.98
2018-01-21T05:34:58.859Z,1002.01
2018-01-21T05:35:58.860Z,1002.02
2018-01-21T05:36:58.875Z,1002.02
2018-01-21T05:37:58.890Z,1002.07
2018-01-21T05:38:58.899Z,1002.08
2018-01-21T05:39:58.909Z,1002.05
2018-01-21T05:40:58.923Z,1002.08
2018-01-21T05:41:58.925Z,1002.13
2018-01-21T05:42:58.941Z,1002.15
2018-01-21T05:43:58.952Z,1002.10
2018-01-21T05:44:58.959Z,1002.13
2018-01-21T05:45:58.981Z,1002.23
2018-01-21T05:46:58.990Z,1002.22
2018-01-21T05:47:58.992Z,1002.24
2018-01-21T05:48:59.006Z,1002.24
2018-01-21T05:49:59.013Z,1002.26
2018-01-21T05:50:59.025Z,1002.31
2018-01-21T05:51:59.028Z,1002.30
2018-01-21T05:52:59.044Z,1002.32
2018-01-21T05:53:59.057Z,1002.36
2018-01-21T05:54:59.066Z,1002.36
2018-01-21T05:55:59.075Z,1002.37
2018-01-21T05:56:59.090Z,1002.42
2018-01-21T05:57:59.092Z,1002.45
2018-01-21T05:58:59.101Z,1002.48
2018-01-21T05:59:59.117Z,1002.49
2018-01-21T06:00:59.120Z,1002.49
2018-01-21T06:01:59.140Z,1002.54
2018-01-21T06:02:59.155Z,1002.50
2018-01-21T06:03:59.159Z,1002.60
2018-01-21T06:04:59.169Z,1002.56
2018-01-21T06:05:59.184Z,1002.56
2018-01-21T06:06:59.191Z,1002.57
2018-01-21T06:07:59.202Z,1002.58
2018-01-21T06:08:59.205Z,1002.62
2018-01-21T06:09:59.224Z,1002.66
2018-01-21T06:10:59.233Z,1002.67
2018-01-21T06:11:59.242Z,1002.69
2018-01-21T06:12:59.256Z,1002.73
2018-01-21T06:13:59.260Z,1002.68
2018-01-21T06:14:59.270Z,1002.67
2018-01-21T06:15:59.285Z,1002.76
2018-01-21T06:16:59.288Z,1002.75
2018-01-21T06:17:59.310Z,1002.75
2018-01-21T06:18:59.318Z,1002.76
2018-01-21T06:19:59.334Z,1002.73
2018-01-21T06:20:59.342Z,1002.77
2018-01-21T06:21:59.344Z,1002.74
2018-01-21T06:22:59.359Z,1002.79
2018-01-21T06:23:59.362Z,1002.80
2018-01-21T06:24:59.372Z,1002.80
2018-01-21T06:25:59.393Z,1002.82
2018-01-21T06:26:59.408Z,1002.85
2018-01-21T06:27:59.416Z,1002.82
2018-01-21T06:28:59.425Z,1002.85
2018-01-21T06:29:59.434Z,1002.88
2018-01-21T06:30:59.443Z,1002.93
2018-01-21T06:31:59.451Z,1002.94
2018-01-21T06:32:59.468Z,1002.97
2018-01-21T06:33:59.476Z,1003.01
2018-01-21T06:34:59.491Z,1003.01
2018-01-21T06:35:59.495Z,1003.06
2018-01-21T06:36:59.508Z,1003.07
2018-01-21T06:37:59.511Z,1003.12
2018-01-21T06:38:59.520Z,1003.18
2018-01-21T06:39:59.536Z,1003.24
2018-01-21T06:40:59.562Z,1003.26
2018-01-21T06:41:59.565Z,1003.24
2018-01-21T06:42:59.568Z,1003.26
2018-01-21T06:43:59.577Z,1003.28
2018-01-21T06:44:59.587Z,1003.29
2018-01-21T06:45:59.602Z,1003.31
2018-01-21T06:46:59.606Z,1003.35
2018-01-21T06:47:59.632Z,1003.35
2018-01-21T06:48:59.641Z,1003.40
2018-01-21T06:49:59.643Z,1003.47
2018-01-21T06:50:59.651Z,1003.52
2018-01-21T06:51:59.670Z,1003.49
2018-01-21T06:52:59.681Z,1003.54
2018-01-21T06:53:59.685Z,1003.55
2018-01-21T06:54:59.712Z,1003.57
2018-01-21T06:55:59.708Z,1003.59
2018-01-21T06:56:59.723Z,1003.61
2018-01-21T06:57:59.734Z,1003.61
2018-01-21T06:58:59.736Z,1003.64
2018-01-21T06:59:59.750Z,1003.65
2018-01-21T07:00:59.755Z,1003.65
2018-01-21T07:01:59.775Z,1003.68
2018-01-21T07:02:59.783Z,1003.68
2018-01-21T07:03:59.799Z,1003.68
2018-01-21T07:04:59.801Z,1003.75
2018-01-21T07:05:59.819Z,1003.76
2018-01-21T07:06:59.818Z,1003.76
2018-01-21T07:07:59.828Z,1003.74
2018-01-21T07:08:59.846Z,1003.76
2018-01-21T07:09:59.858Z,1003.75
2018-01-21T07:10:59.867Z,1003.76
2018-01-21T07:11:59.876Z,1003.76
2018-01-21T07:12:59.886Z,1003.80
2018-01-21T07:13:59.900Z,1003.80
2018-01-21T07:14:59.921Z,1003.81
2018-01-21T07:15:59.918Z,1003.84
2018-01-21T07:16:59.932Z,1003.81
2018-01-21T07:17:59.950Z,1003.86
2018-01-21T07:18:59.953Z,1003.83
2018-01-21T07:19:59.962Z,1003.85
2018-01-21T07:20:59.976Z,1003.89
2018-01-21T07:21:59.977Z,1003.90
2018-01-21T07:22:59.987Z,1003.98
2018-01-21T07:24:00.016Z,1004.01
2018-01-21T07:25:00.027Z,1004.03
2018-01-21T07:26:00.028Z,1004.00
2018-01-21T07:27:00.042Z,1004.05
2018-01-21T07:28:00.043Z,1004.09
2018-01-21T07:29:00.072Z,1004.11
2018-01-21T07:30:00.075Z,1004.13
2018-01-21T07:31:00.082Z,1004.17
2018-01-21T07:32:00.099Z,1004.20
2018-01-21T07:33:00.101Z,1004.24
2018-01-21T07:34:00.116Z,1004.31
2018-01-21T07:35:00.118Z,1004.31
2018-01-21T07:36:00.128Z,1004.34
2018-01-21T07:37:00.143Z,1004.33
2018-01-21T07:38:00.164Z,1004.35
2018-01-21T07:39:00.166Z,1004.34
2018-01-21T07:40:00.181Z,1004.43
2018-01-21T07:41:00.184Z,1004.44
2018-01-21T07:42:00.193Z,1004.42
2018-01-21T07:43:00.209Z,1004.48
2018-01-21T07:44:00.211Z,1004.46
2018-01-21T07:45:00.220Z,1004.50
2018-01-21T07:46:00.248Z,1004.53
2018-01-21T07:47:00.250Z,1004.55
2018-01-21T07:48:00.259Z,1004.55
2018-01-21T07:49:00.273Z,1004.57
2018-01-21T07:50:00.278Z,1004.60
2018-01-21T07:51:00.290Z,1004.59
2018-01-21T07:52:00.301Z,1004.64
2018-01-21T07:53:00.324Z,1004.66
2018-01-21T07:54:00.325Z,1004.66
2018-01-21T07:55:00.340Z,1004.72
2018-01-21T07:56:00.349Z,1004.80
2018-01-21T07:57:00.358Z,1004.77
2018-01-21T07:58:00.366Z,1004.83
2018-01-21T07:59:00.388Z,1004.84
2018-01-21T08:00:00.392Z,1004.79
2018-01-21T08:01:00.410Z,1004.78
2018-01-21T08:02:00.409Z,1004.82
2018-01-21T08:03:00.427Z,1004.86
2018-01-21T08:04:00.428Z,1004.89
2018-01-21T08:05:00.443Z,1004.90
2018-01-21T08:06:00.463Z,1004.94
2018-01-21T08:07:00.467Z,1005.01
2018-01-21T08:08:00.482Z,1005.04
2018-01-21T08:09:00.490Z,1005.05
2018-01-21T08:10:00.493Z,1005.10
2018-01-21T08:11:00.502Z,1005.12
2018-01-21T08:12:00.518Z,1005.14
2018-01-21T08:13:00.531Z,1005.18
2018-01-21T08:14:00.547Z,1005.19
2018-01-21T08:15:00.550Z,1005.18
2018-01-21T08:16:00.558Z,1005.19
2018-01-21T08:17:00.577Z,1005.22
2018-01-21T08:18:00.588Z,1005.25
2018-01-21T08:19:00.598Z,1005.25
2018-01-21T08:20:00.606Z,1005.29
2018-01-21T08:21:00.621Z,1005.32
2018-01-21T08:22:00.682Z,1005.31
2018-01-21T08:23:00.639Z,1005.37
2018-01-21T08:24:00.654Z,1005.35
2018-01-21T08:25:00.664Z,1005.34
2018-01-21T08:26:00.672Z,1005.42
2018-01-21T08:27:00.681Z,1005.44
2018-01-21T08:28:00.694Z,1005.46
2018-01-21T08:29:00.702Z,1005.48
2018-01-21T08:30:00.720Z,1005.51
2018-01-21T08:31:00.730Z,1005.56
2018-01-21T08:32:00.746Z,1005.60
2018-01-21T08:33:00.747Z,1005.59
2018-01-21T08:34:00.755Z,1005.60
2018-01-21T08:35:00.765Z,1005.65
2018-01-21T08:36:00.793Z,1005.63
2018-01-21T08:37:00.808Z,1005.65
2018-01-21T08:38:00.804Z,1005.66
2018-01-21T08:39:00.813Z,1005.66
2018-01-21T08:40:00.821Z,1005.67
2018-01-21T08:41:00.850Z,1005.65
2018-01-21T08:42:00.851Z,1005.69
2018-01-21T08:43:00.868Z,1005.69
2018-01-21T08:44:00.877Z,1005.71
2018-01-21T08:45:00.879Z,1005.78
2018-01-21T08:46:00.901Z,1005.77
2018-01-21T08:47:00.910Z,1005.80
2018-01-21T08:48:00.918Z,1005.81
2018-01-21T08:49:00.934Z,1005.86
2018-01-21T08:50:00.936Z,1005.89
2018-01-21T08:51:00.946Z,1005.91
2018-01-21T08:52:00.972Z,1005.93
2018-01-21T08:53:00.976Z,1005.94
2018-01-21T08:54:00.991Z,1005.97
2018-01-21T08:55:00.992Z,1005.98
2018-01-21T08:56:01.002Z,1005.99
2018-01-21T08:57:01.022Z,1006.05
2018-01-21T08:58:01.033Z,1006.03
2018-01-21T08:59:01.042Z,1006.07
2018-01-21T09:00:01.050Z,1006.08
2018-01-21T09:01:01.065Z,1006.14
2018-01-21T09:02:01.086Z,1006.18
2018-01-21T09:03:01.090Z,1006.13
2018-01-21T09:04:01.101Z,1006.14
2018-01-21T09:05:01.107Z,1006.19
2018-01-21T09:06:01.115Z,1006.24
2018-01-21T09:07:01.143Z,1006.22
2018-01-21T09:08:01.147Z,1006.28
2018-01-21T09:09:01.161Z,1006.29
2018-01-21T09:10:01.163Z,1006.27
2018-01-21T09:11:01.173Z,1006.31
2018-01-21T09:12:01.194Z,1006.29
2018-01-21T09:13:01.220Z,1006.33
2018-01-21T09:14:01.221Z,1006.31
2018-01-21T09:15:01.221Z,1006.31
2018-01-21T09:16:01.237Z,1006.34
2018-01-21T09:17:01.250Z,1006.35
2018-01-21T09:18:01.267Z,1006.38
2018-01-21T09:19:01.275Z,1006.38
2018-01-21T09:20:01.279Z,1006.38
2018-01-21T09:21:01.299Z,1006.43
2018-01-21T09:22:01.310Z,1006.41
2018-01-21T09:23:01.323Z,1006.43
2018-01-21T09:24:01.328Z,1006.49
2018-01-21T09:25:01.354Z,1006.48
2018-01-21T09:26:01.358Z,1006.53
2018-01-21T09:27:01.365Z,1006.55
2018-01-21T09:28:01.381Z,1006.59
2018-01-21T09:29:01.383Z,1006.59
2018-01-21T09:30:01.411Z,1006.65
2018-01-21T09:31:01.421Z,1006.65
2018-01-21T09:32:01.421Z,1006.72
2018-01-21T09:33:01.431Z,1006.69
2018-01-21T09:34:01.459Z,1006.76
2018-01-21T09:35:01.462Z,1006.77
2018-01-21T09:36:01.470Z,1006.78
2018-01-21T09:37:01.480Z,1006.80
2018-01-21T09:38:01.507Z,1006.83
2018-01-21T09:39:01.509Z,1006.84
2018-01-21T09:40:01.525Z,1006.86
2018-01-21T09:41:01.534Z,1006.86
2018-01-21T09:42:01.555Z,1006.90
2018-01-21T09:43:01.564Z,1006.90
2018-01-21T09:44:01.567Z,1006.88
2018-01-21T09:45:01.588Z,1006.95
2018-01-21T09:46:01.597Z,1006.96
2018-01-21T09:47:01.606Z,1006.98
2018-01-21T09:48:01.620Z,1007.00
2018-01-21T09:49:01.631Z,1007.03
2018-01-21T09:50:01.646Z,1007.04
2018-01-21T09:51:01.653Z,1007.05
2018-01-21T09:52:01.669Z,1007.08
2018-01-21T09:53:01.671Z,1007.08
2018-01-21T09:54:01.692Z,1007.10
2018-01-21T09:55:01.701Z,1007.15
2018-01-21T09:56:01.710Z,1007.14
2018-01-21T09:57:01.727Z,1007.15
2018-01-21T09:58:01.748Z,1007.21
2018-01-21T09:59:01.757Z,1007.17
2018-01-21T10:00:01.759Z,1007.27
2018-01-21T10:01:01.769Z,1007.25
2018-01-21T10:02:01.796Z,1007.23
2018-01-21T10:03:01.798Z,1007.27
2018-01-21T10:04:01.807Z,1007.29
2018-01-21T10:05:01.824Z,1007.28
2018-01-21T10:06:01.844Z,1007.29
2018-01-21T10:07:01.882Z,1007.28
2018-01-21T10:08:01.866Z,1007.37
2018-01-21T10:09:01.901Z,1007.36
2018-01-21T10:10:01.885Z,1007.38
2018-01-21T10:11:01.901Z,1007.38
2018-01-21T10:12:01.909Z,1007.39
2018-01-21T10:13:01.912Z,1007.40
2018-01-21T10:14:01.940Z,1007.40
2018-01-21T10:15:01.950Z,1007.44
2018-01-21T10:16:01.960Z,1007.47
2018-01-21T10:17:01.967Z,1007.48
2018-01-21T10:18:01.982Z,1007.51
2018-01-21T10:19:01.990Z,1007.54
2018-01-21T10:20:01.999Z,1007.53
2018-01-21T10:21:02.019Z,1007.55
2018-01-21T10:22:02.036Z,1007.55
2018-01-21T10:23:02.039Z,1007.59
2018-01-21T10:24:02.048Z,1007.59
2018-01-21T10:25:02.057Z,1007.62
2018-01-21T10:26:02.083Z,1007.65
2018-01-21T10:27:02.086Z,1007.62
2018-01-21T10:28:02.094Z,1007.67
2018-01-21T10:29:02.104Z,1007.70
2018-01-21T10:30:02.125Z,1007.70
2018-01-21T10:31:02.141Z,1007.74
2018-01-21T10:32:02.150Z,1007.75
2018-01-21T10:33:02.152Z,1007.76
2018-01-21T10:34:02.173Z,1007.75
2018-01-21T10:35:02.183Z,1007.76
2018-01-21T10:36:02.192Z,1007.77
2018-01-21T10:37:02.207Z,1007.80
2018-01-21T10:38:02.212Z,1007.79
2018-01-21T10:39:02.248Z,1007.82
2018-01-21T10:40:02.239Z,1007.81
2018-01-21T10:41:02.248Z,1007.82
2018-01-21T10:42:02.264Z,1007.85
2018-01-21T10:43:02.284Z,1007.90
2018-01-21T10:44:02.299Z,1007.90
2018-01-21T10:45:02.296Z,1007.91
2018-01-21T10:46:02.313Z,1007.91
2018-01-21T10:47:02.334Z,1007.93
2018-01-21T10:48:02.336Z,1007.90
2018-01-21T10:49:02.344Z,1007.96
2018-01-21T10:50:02.359Z,1007.94
2018-01-21T10:51:02.382Z,1007.92
2018-01-21T10:52:02.383Z,1007.94
2018-01-21T10:53:02.399Z,1007.96
2018-01-21T10:54:02.401Z,1007.99
2018-01-21T10:55:02.422Z,1007.98
2018-01-21T10:56:02.432Z,1008.01
2018-01-21T10:57:02.441Z,1008.04
2018-01-21T10:58:02.456Z,1008.08
2018-01-21T10:59:02.459Z,1008.08
2018-01-21T11:00:02.479Z,1008.05
2018-01-21T11:01:02.489Z,1008.07
2018-01-21T11:02:02.498Z,1008.07
2018-01-21T11:03:02.506Z,1008.06
2018-01-21T11:04:02.528Z,1008.10
2018-01-21T11:05:02.536Z,1008.12
2018-01-21T11:06:02.552Z,1008.12
2018-01-21T11:07:02.556Z,1008.16
2018-01-21T11:08:02.565Z,1008.18
2018-01-21T11:09:02.585Z,1008.15
2018-01-21T11:10:02.594Z,1008.16
2018-01-21T11:11:02.613Z,1008.20
2018-01-21T11:12:02.625Z,1008.18
2018-01-21T11:13:02.688Z,1008.21
2018-01-21T11:14:02.642Z,1008.20
2018-01-21T11:15:02.650Z,1008.16
2018-01-21T11:16:02.671Z,1008.25
2018-01-21T11:17:02.681Z,1008.22
2018-01-21T11:18:02.697Z,1008.22
2018-01-21T11:19:02.705Z,1008.23
2018-01-21T11:20:02.720Z,1008.23
2018-01-21T11:21:02.728Z,1008.26
2018-01-21T11:22:02.738Z,1008.27
2018-01-21T11:23:02.747Z,1008.29
2018-01-21T11:24:02.768Z,1008.29
2018-01-21T11:25:02.783Z,1008.29
2018-01-21T11:26:02.791Z,1008.33
2018-01-21T11:27:02.806Z,1008.34
2018-01-21T11:28:02.817Z,1008.37
2018-01-21T11:29:02.831Z,1008.39
2018-01-21T11:30:02.834Z,1008.41
2018-01-21T11:31:02.856Z,1008.37
2018-01-21T11:32:02.870Z,1008.39
2018-01-21T11:33:02.880Z,1008.41
2018-01-21T11:34:02.901Z,1008.41
2018-01-21T11:35:02.907Z,1008.41
2018-01-21T11:36:02.914Z,1008.47
2018-01-21T11:37:02.922Z,1008.45
2018-01-21T11:38:02.962Z,1008.49
2018-01-21T11:39:02.952Z,1008.50
2018-01-21T11:40:02.967Z,1008.53
2018-01-21T11:41:02.982Z,1008.49
2018-01-21T11:42:02.997Z,1008.52
2018-01-21T11:43:03.007Z,1008.53
2018-01-21T11:44:03.028Z,1008.51
2018-01-21T11:45:03.031Z,1008.55
2018-01-21T11:46:03.049Z,1008.56
2018-01-21T11:47:03.060Z,1008.54
2018-01-21T11:48:03.076Z,1008.56
2018-01-21T11:49:03.079Z,1008.59
2018-01-21T11:50:03.099Z,1008.59
2018-01-21T11:51:03.113Z,1008.58
2018-01-21T11:52:03.118Z,1008.61
2018-01-21T11:53:03.126Z,1008.67
2018-01-21T11:54:03.153Z,1008.67
2018-01-21T11:55:03.155Z,1008.68
2018-01-21T11:56:03.174Z,1008.65
2018-01-21T11:57:03.187Z,1008.68
2018-01-21T11:58:03.234Z,1008.70
2018-01-21T11:59:03.211Z,1008.70
2018-01-21T12:00:03.234Z,1008.75
2018-01-21T12:01:03.241Z,1008.74
2018-01-21T12:02:03.244Z,1008.78
2018-01-21T12:03:03.266Z,1008.83
2018-01-21T12:04:03.281Z,1008.88
2018-01-21T12:05:03.283Z,1008.91
2018-01-21T12:06:03.300Z,1008.90
2018-01-21T12:07:03.312Z,1008.88
2018-01-21T12:08:03.321Z,1008.90
2018-01-21T12:09:03.331Z,1008.87
2018-01-21T12:10:03.365Z,1008.92
2018-01-21T12:11:03.361Z,1008.93
2018-01-21T12:12:03.369Z,1008.89